createdAt,value
2024-01-18T00:02:06.836Z,16.23
2024-01-18T00:04:33.630Z,14.18
2024-01-18T00:07:00.561Z,13.63
2024-01-18T00:09:27.741Z,13.50
2024-01-18T00:11:54.512Z,13.60
2024-01-18T00:14:21.305Z,14.35
2024-01-18T00:16:48.836Z,13.07
2024-01-18T00:19:16.029Z,12.70
2024-01-18T00:21:42.814Z,12.32
2024-01-18T00:24:10.172Z,13.63
2024-01-18T00:26:36.944Z,13.23
2024-01-18T00:29:04.005Z,11.93
2024-01-18T00:31:31.685Z,11.90
2024-01-18T00:33:59.929Z,11.55
2024-01-18T00:36:28.193Z,10.77
2024-01-18T00:38:56.057Z,11.38
2024-01-18T00:41:23.058Z,11.77
2024-01-18T00:43:49.985Z,11.65
2024-01-18T00:46:20.800Z,11.88
2024-01-18T00:48:47.727Z,11.65
2024-01-18T00:51:14.545Z,10.82
2024-01-18T00:53:42.583Z,12.05
2024-01-18T00:56:11.407Z,10.98
2024-01-18T00:58:38.751Z,10.02
2024-01-18T01:04:16.483Z,8.90
2024-01-18T01:06:43.228Z,9.35
2024-01-18T01:09:10.700Z,9.85
2024-01-18T01:11:38.462Z,9.68
2024-01-18T01:14:05.123Z,9.27
2024-01-18T01:16:31.864Z,9.07
2024-01-18T01:18:59.097Z,9.23
2024-01-18T01:21:25.894Z,8.57
2024-01-18T01:23:53.042Z,8.85
2024-01-18T01:26:20.206Z,8.60
2024-01-18T01:28:46.884Z,9.65
2024-01-18T01:31:13.567Z,7.80
2024-01-18T01:33:43.407Z,8.15
2024-01-18T01:36:10.283Z,7.60
2024-01-18T01:38:37.078Z,8.77
2024-01-18T01:41:04.924Z,8.45
2024-01-18T01:43:31.908Z,7.18
2024-01-18T01:45:58.731Z,8.77
2024-01-18T01:48:26.565Z,7.38
2024-01-18T01:50:53.644Z,7.95
2024-01-18T01:53:21.582Z,7.05
2024-01-18T01:55:49.842Z,7.47
2024-01-18T01:58:18.868Z,7.90
2024-01-18T02:00:46.265Z,33.97
2024-01-18T02:03:13.395Z,10.35
2024-01-18T02:05:40.825Z,7.45
2024-01-18T02:08:07.794Z,6.78
2024-01-18T02:10:35.082Z,7.18
2024-01-18T02:13:03.496Z,7.53
2024-01-18T02:15:30.619Z,7.68
2024-01-18T02:17:57.825Z,7.18
2024-01-18T02:20:24.519Z,7.22
2024-01-18T02:22:51.531Z,6.60
2024-01-18T02:25:29.421Z,6.57
2024-01-18T02:27:59.622Z,6.82
2024-01-18T02:30:26.707Z,7.22
2024-01-18T02:32:53.820Z,6.68
2024-01-18T02:35:21.360Z,6.68
2024-01-18T02:37:48.804Z,7.40
2024-01-18T02:40:15.609Z,7.20
2024-01-18T02:42:42.778Z,6.53
2024-01-18T02:45:10.654Z,6.22
2024-01-18T02:47:37.889Z,7.15
2024-01-18T02:50:08.408Z,6.88
2024-01-18T02:52:35.638Z,6.22
2024-01-18T02:55:02.818Z,7.93
2024-01-18T02:57:29.504Z,6.57
2024-01-18T02:59:56.430Z,7.40
2024-01-18T03:02:23.524Z,7.40
2024-01-18T03:04:50.237Z,6.32
2024-01-18T03:07:17.177Z,8.13
2024-01-18T03:09:44.657Z,6.90
2024-01-18T03:12:11.347Z,7.35
2024-01-18T03:14:38.393Z,7.57
2024-01-18T03:17:05.265Z,7.18
2024-01-18T03:19:32.053Z,6.32
2024-01-18T03:21:59.002Z,6.32
2024-01-18T03:24:25.851Z,6.97
2024-01-18T03:26:53.543Z,6.88
2024-01-18T03:29:20.298Z,6.78
2024-01-18T03:31:47.104Z,6.85
2024-01-18T03:34:13.871Z,6.53
2024-01-18T03:36:40.886Z,6.15
2024-01-18T03:39:08.120Z,6.35
2024-01-18T03:41:34.837Z,6.57
2024-01-18T03:44:01.667Z,9.27
2024-01-18T03:46:28.677Z,9.38
2024-01-18T03:48:55.575Z,8.23
2024-01-18T03:51:22.547Z,7.85
2024-01-18T03:53:49.290Z,7.70
2024-01-18T03:56:15.940Z,8.68
2024-01-18T03:58:44.323Z,10.50
2024-01-18T04:01:11.262Z,9.57
2024-01-18T04:03:38.200Z,8.70
2024-01-18T04:06:07.931Z,7.75
2024-01-18T04:08:34.896Z,135.43
2024-01-18T04:11:05.199Z,9.57
2024-01-18T04:13:32.055Z,8.00
2024-01-18T04:15:58.939Z,8.15
2024-01-18T04:18:25.788Z,7.35
2024-01-18T04:20:54.098Z,8.23
2024-01-18T04:23:22.648Z,7.65
2024-01-18T04:25:53.010Z,7.13
2024-01-18T04:28:23.281Z,7.82
2024-01-18T04:30:50.013Z,7.95
2024-01-18T04:33:17.012Z,9.18
2024-01-18T04:35:43.918Z,10.05
2024-01-18T04:38:10.559Z,8.25
2024-01-18T04:40:37.357Z,8.50
2024-01-18T04:43:07.642Z,11.15
2024-01-18T04:45:34.712Z,11.40
2024-01-18T04:48:01.748Z,10.75
2024-01-18T04:50:28.780Z,10.23
2024-01-18T04:52:57.585Z,9.95
2024-01-18T04:55:25.604Z,10.70
2024-01-18T04:57:52.552Z,9.90
2024-01-18T05:00:19.565Z,10.20
2024-01-18T05:02:46.445Z,10.32
2024-01-18T05:05:13.896Z,13.00
2024-01-18T05:07:43.948Z,18.30
2024-01-18T05:10:12.219Z,24.58
2024-01-18T05:12:39.831Z,22.10
2024-01-18T05:15:09.189Z,18.48
2024-01-18T05:17:37.049Z,21.95
2024-01-18T05:20:05.726Z,20.50
2024-01-18T05:22:33.106Z,16.92
2024-01-18T05:25:00.829Z,12.20
2024-01-18T05:27:29.539Z,16.63
2024-01-18T05:29:56.237Z,16.10
2024-01-18T05:32:23.113Z,14.48
2024-01-18T05:34:51.203Z,18.02
2024-01-18T05:37:19.273Z,20.13
2024-01-18T05:39:46.122Z,20.00
2024-01-18T05:42:13.134Z,18.73
2024-01-18T05:44:39.948Z,15.20
2024-01-18T05:47:07.423Z,9.02
2024-01-18T05:49:34.454Z,8.32
2024-01-18T05:52:01.081Z,7.45
2024-01-18T05:54:27.879Z,6.15
2024-01-18T05:56:54.707Z,7.05
2024-01-18T05:59:21.393Z,9.68
2024-01-18T06:01:48.030Z,7.28
2024-01-18T06:04:15.085Z,6.65
2024-01-18T06:06:41.831Z,7.50
2024-01-18T06:09:08.572Z,9.45
2024-01-18T06:11:35.534Z,9.13
2024-01-18T06:14:02.425Z,8.27
2024-01-18T06:16:29.508Z,8.38
2024-01-18T06:18:56.404Z,7.80
2024-01-18T06:21:23.126Z,6.65
2024-01-18T06:23:50.438Z,6.00
2024-01-18T06:26:18.197Z,6.30
2024-01-18T06:28:45.310Z,10.07
2024-01-18T06:31:12.063Z,15.98
2024-01-18T06:33:39.091Z,14.30
2024-01-18T06:36:06.885Z,14.70
2024-01-18T06:38:33.602Z,14.13
2024-01-18T06:41:00.879Z,12.57
2024-01-18T06:43:27.619Z,9.45
2024-01-18T06:45:57.359Z,9.57
2024-01-18T06:48:24.461Z,9.98
2024-01-18T06:50:54.908Z,10.15
2024-01-18T06:53:21.560Z,10.65
2024-01-18T06:55:48.611Z,9.75
2024-01-18T06:58:15.249Z,12.10
2024-01-18T07:00:42.217Z,14.60
2024-01-18T07:03:09.886Z,14.45
2024-01-18T07:05:37.003Z,14.35
2024-01-18T07:08:04.651Z,11.00
2024-01-18T07:10:31.612Z,7.15
2024-01-18T07:12:58.252Z,7.07
2024-01-18T07:15:25.042Z,6.10
2024-01-18T07:17:52.017Z,5.68
2024-01-18T07:20:18.782Z,5.25
2024-01-18T07:22:45.434Z,5.85
2024-01-18T07:25:14.237Z,5.25
2024-01-18T07:27:40.989Z,5.05
2024-01-18T07:30:09.029Z,5.80
2024-01-18T07:32:35.969Z,8.93
2024-01-18T07:35:03.991Z,9.75
2024-01-18T07:37:30.826Z,15.18
2024-01-18T07:39:57.700Z,18.80
2024-01-18T07:42:24.366Z,19.85
2024-01-18T07:44:51.106Z,29.75
2024-01-18T07:47:19.525Z,17.48
2024-01-18T07:49:50.211Z,14.77
2024-01-18T07:52:18.676Z,10.00
2024-01-18T07:54:46.003Z,9.88
2024-01-18T07:57:14.085Z,5.65
2024-01-18T07:59:40.789Z,8.48
2024-01-18T08:02:10.033Z,6.88
2024-01-18T08:04:36.763Z,4.93
2024-01-18T08:07:06.018Z,4.75
2024-01-18T08:09:33.047Z,6.70
2024-01-18T08:11:59.702Z,6.95
2024-01-18T08:14:26.452Z,11.25
2024-01-18T08:16:53.731Z,9.65
2024-01-18T08:19:20.595Z,6.38
2024-01-18T08:21:47.564Z,6.57
2024-01-18T08:24:14.522Z,5.97
2024-01-18T08:26:42.703Z,5.55
2024-01-18T08:29:09.481Z,4.43
2024-01-18T08:31:36.650Z,4.30
2024-01-18T08:34:03.875Z,5.10
2024-01-18T08:36:30.858Z,4.35
2024-01-18T08:38:58.027Z,4.47
2024-01-18T08:41:24.662Z,4.60
2024-01-18T08:43:51.370Z,4.07
2024-01-18T08:46:18.334Z,5.53
2024-01-18T08:48:45.030Z,5.60
2024-01-18T08:51:14.894Z,5.70
2024-01-18T08:53:42.031Z,5.53
2024-01-18T08:56:08.836Z,6.70
2024-01-18T08:58:37.181Z,6.53
2024-01-18T09:01:04.445Z,16.88
2024-01-18T09:03:31.259Z,17.15
2024-01-18T09:05:58.135Z,15.35
2024-01-18T09:08:25.035Z,13.80
2024-01-18T09:10:53.323Z,14.75
2024-01-18T09:13:21.140Z,17.52
2024-01-18T09:15:48.806Z,17.73
2024-01-18T09:18:16.668Z,18.33
2024-01-18T09:20:46.338Z,19.63
2024-01-18T09:23:13.991Z,17.52
2024-01-18T09:25:43.293Z,16.17
2024-01-18T09:28:11.669Z,15.77
2024-01-18T09:30:42.194Z,16.83
2024-01-18T09:33:11.446Z,14.95
2024-01-18T09:35:39.782Z,15.18
2024-01-18T09:38:06.643Z,13.38
2024-01-18T09:40:33.443Z,16.60
2024-01-18T09:43:04.835Z,21.38
2024-01-18T09:45:33.998Z,22.55
2024-01-18T09:48:00.817Z,15.43
2024-01-18T09:50:28.667Z,17.42
2024-01-18T09:52:55.727Z,21.48
2024-01-18T09:55:22.497Z,24.42
2024-01-18T09:57:50.514Z,28.23
2024-01-18T10:00:22.899Z,34.65
2024-01-18T10:02:49.606Z,34.20
2024-01-18T10:05:16.472Z,42.10
2024-01-18T10:07:43.509Z,39.17
2024-01-18T10:10:14.113Z,33.25
2024-01-18T10:12:43.806Z,28.38
2024-01-18T10:15:11.237Z,16.88
2024-01-18T10:17:40.185Z,20.00
2024-01-18T10:20:15.915Z,13.77
2024-01-18T10:22:44.672Z,6.38
2024-01-18T10:25:14.245Z,3.80
2024-01-18T10:27:44.156Z,4.47
2024-01-18T10:30:16.420Z,5.40
2024-01-18T10:32:46.975Z,3.80
2024-01-18T10:35:25.710Z,3.50
2024-01-18T10:38:05.009Z,3.55
2024-01-18T10:40:34.891Z,5.20
2024-01-18T10:43:02.793Z,8.55
2024-01-18T10:45:31.074Z,16.73
2024-01-18T10:47:58.890Z,19.73
2024-01-18T10:50:26.351Z,14.30
2024-01-18T10:52:54.026Z,8.80
2024-01-18T10:55:20.897Z,7.53
2024-01-18T10:57:47.836Z,8.35
2024-01-18T11:00:17.582Z,7.03
2024-01-18T11:02:45.610Z,7.40
2024-01-18T11:05:20.197Z,4.75
2024-01-18T11:07:47.398Z,5.05
2024-01-18T11:10:14.267Z,4.25
2024-01-18T11:12:50.969Z,3.92
2024-01-18T11:15:18.005Z,4.10
2024-01-18T11:17:49.320Z,4.45
2024-01-18T11:20:16.996Z,6.13
2024-01-18T11:22:44.154Z,8.05
2024-01-18T11:25:11.969Z,9.43
2024-01-18T11:27:42.928Z,9.20
2024-01-18T11:30:43.241Z,13.70
2024-01-18T11:33:12.134Z,15.30
2024-01-18T11:35:39.208Z,14.27
2024-01-18T11:38:22.158Z,15.25
2024-01-18T11:40:54.697Z,12.90
2024-01-18T11:43:22.478Z,4.97
2024-01-18T11:45:51.669Z,4.10
2024-01-18T11:48:19.959Z,3.90
2024-01-18T11:50:46.803Z,3.78
2024-01-18T11:53:17.588Z,3.50
2024-01-18T11:55:53.437Z,4.15
2024-01-18T11:58:22.140Z,3.90
2024-01-18T12:00:49.977Z,4.50
2024-01-18T12:03:16.880Z,4.32
2024-01-18T12:05:43.816Z,5.05
2024-01-18T12:08:11.859Z,5.38
2024-01-18T12:10:38.926Z,7.18
2024-01-18T12:13:06.203Z,7.85
2024-01-18T12:15:33.474Z,5.25
2024-01-18T12:18:01.093Z,4.40
2024-01-18T12:20:28.057Z,4.78
2024-01-18T12:22:54.962Z,4.93
2024-01-18T12:25:21.748Z,4.28
2024-01-18T12:27:51.546Z,3.60
2024-01-18T12:30:18.617Z,3.65
2024-01-18T12:32:45.506Z,4.05
2024-01-18T12:35:12.543Z,4.10
2024-01-18T12:37:40.102Z,4.00
2024-01-18T12:40:11.046Z,3.90
2024-01-18T12:42:38.186Z,3.83
2024-01-18T12:45:08.222Z,3.95
2024-01-18T12:47:35.338Z,3.78
2024-01-18T12:50:02.817Z,3.95
2024-01-18T12:52:32.939Z,4.28
2024-01-18T12:55:01.417Z,4.20
2024-01-18T12:57:28.926Z,5.07
2024-01-18T12:59:56.173Z,4.68
2024-01-18T13:02:26.789Z,5.57
2024-01-18T13:04:53.951Z,5.60
2024-01-18T13:07:21.032Z,6.65
2024-01-18T13:09:48.750Z,5.40
2024-01-18T13:12:17.204Z,7.00
2024-01-18T13:14:46.908Z,6.75
2024-01-18T13:17:20.226Z,7.65
2024-01-18T13:19:47.322Z,7.07
2024-01-18T13:22:14.795Z,7.10
2024-01-18T13:24:41.661Z,8.70
2024-01-18T13:27:08.520Z,9.73
2024-01-18T13:29:35.159Z,8.80
2024-01-18T13:32:02.507Z,7.93
2024-01-18T13:34:31.486Z,6.97
2024-01-18T13:36:58.998Z,6.30
2024-01-18T13:39:26.052Z,6.07
2024-01-18T13:41:53.445Z,6.05
2024-01-18T13:44:21.493Z,8.77
2024-01-18T13:46:48.576Z,7.20
2024-01-18T13:49:15.317Z,10.35
2024-01-18T13:51:42.093Z,17.65
2024-01-18T13:54:09.494Z,21.20
2024-01-18T13:56:36.315Z,20.42
2024-01-18T13:59:04.360Z,20.02
2024-01-18T14:01:32.332Z,20.00
2024-01-18T14:03:59.300Z,16.95
2024-01-18T14:06:26.918Z,15.43
2024-01-18T14:08:53.876Z,10.00
2024-01-18T14:11:20.762Z,9.80
2024-01-18T14:13:47.470Z,11.57
2024-01-18T14:16:15.679Z,10.65
2024-01-18T14:18:43.054Z,11.50
2024-01-18T14:21:10.227Z,16.42
2024-01-18T14:23:37.379Z,8.55
2024-01-18T14:26:07.353Z,12.63
2024-01-18T14:28:35.193Z,14.45
2024-01-18T14:31:02.924Z,20.95
2024-01-18T14:33:30.233Z,27.83
2024-01-18T14:35:57.449Z,27.42
2024-01-18T14:38:24.610Z,25.23
2024-01-18T14:40:51.471Z,24.58
2024-01-18T14:43:19.517Z,23.85
2024-01-18T14:45:46.402Z,19.90
2024-01-18T14:48:15.249Z,20.73
2024-01-18T14:50:45.859Z,16.75
2024-01-18T14:53:14.663Z,12.60
2024-01-18T14:55:42.079Z,12.23
2024-01-18T14:58:08.884Z,12.40
2024-01-18T15:00:37.971Z,12.15
2024-01-18T15:03:07.968Z,10.30
2024-01-18T15:05:35.224Z,19.63
2024-01-18T15:08:05.871Z,7.60
2024-01-18T15:10:34.033Z,5.72
2024-01-18T15:13:00.901Z,5.65
2024-01-18T15:15:28.023Z,7.47
2024-01-18T15:17:55.533Z,12.38
2024-01-18T15:20:22.647Z,25.63
2024-01-18T15:22:49.790Z,8.00
2024-01-18T15:25:16.694Z,6.47
2024-01-18T15:27:43.430Z,11.05
2024-01-18T15:30:13.452Z,8.15
2024-01-18T15:32:40.518Z,9.52
2024-01-18T15:35:08.140Z,9.23
2024-01-18T15:37:35.049Z,9.70
2024-01-18T15:40:02.126Z,9.18
2024-01-18T15:42:29.075Z,22.13
2024-01-18T15:44:56.566Z,19.42
2024-01-18T15:47:23.494Z,13.95
2024-01-18T15:49:50.287Z,11.90
2024-01-18T15:52:17.164Z,15.50
2024-01-18T15:54:44.325Z,27.00
2024-01-18T15:57:11.211Z,29.05
2024-01-18T15:59:38.070Z,40.75
2024-01-18T16:02:08.236Z,36.63
2024-01-18T16:04:35.011Z,35.78
2024-01-18T16:07:02.176Z,41.17
2024-01-18T16:09:29.525Z,33.00
2024-01-18T16:11:56.293Z,33.83
2024-01-18T16:14:23.089Z,35.13
2024-01-18T16:16:49.893Z,35.15
2024-01-18T16:19:20.496Z,37.38
2024-01-18T16:21:51.050Z,36.78
2024-01-18T16:24:19.060Z,35.28
2024-01-18T16:26:46.574Z,33.92
2024-01-18T16:29:13.804Z,31.73
2024-01-18T16:31:41.279Z,32.40
2024-01-18T16:34:08.307Z,30.02
2024-01-18T16:36:36.008Z,28.80
2024-01-18T16:39:02.990Z,23.55
2024-01-18T16:41:29.628Z,22.45
2024-01-18T16:43:56.507Z,22.92
2024-01-18T16:46:23.350Z,23.20
2024-01-18T16:48:50.062Z,33.03
2024-01-18T16:51:17.421Z,29.73
2024-01-18T16:53:45.562Z,32.05
2024-01-18T16:56:13.523Z,20.88
2024-01-18T16:58:41.083Z,18.52
2024-01-18T17:01:09.623Z,19.50
2024-01-18T17:03:37.410Z,17.77
2024-01-18T17:06:05.904Z,17.60
2024-01-18T17:08:32.867Z,11.60
2024-01-18T17:10:59.846Z,9.40
2024-01-18T17:13:26.668Z,9.48
2024-01-18T17:15:54.857Z,7.20
2024-01-18T17:18:21.595Z,5.78
2024-01-18T17:20:48.600Z,6.40
2024-01-18T17:23:15.868Z,6.97
2024-01-18T17:25:42.576Z,6.40
2024-01-18T17:28:09.658Z,6.32
2024-01-18T17:30:36.718Z,7.25
2024-01-18T17:33:09.664Z,7.28
2024-01-18T17:35:36.501Z,4.80
2024-01-18T17:38:03.924Z,6.88
2024-01-18T17:40:30.722Z,6.03
2024-01-18T17:42:57.977Z,5.65
2024-01-18T17:45:27.157Z,7.13
2024-01-18T17:47:54.031Z,5.60
2024-01-18T17:50:22.801Z,7.50
2024-01-18T17:52:50.004Z,10.18
2024-01-18T17:55:16.694Z,10.38
2024-01-18T17:57:43.560Z,19.30
2024-01-18T18:00:11.407Z,20.85
2024-01-18T18:02:39.149Z,16.80
2024-01-18T18:05:08.508Z,14.32
2024-01-18T18:07:35.500Z,13.18
2024-01-18T18:10:05.126Z,25.23
2024-01-18T18:12:32.030Z,19.63
2024-01-18T18:14:58.963Z,17.35
2024-01-18T18:17:25.754Z,13.55
2024-01-18T18:19:52.952Z,12.73
2024-01-18T18:22:21.762Z,10.32
2024-01-18T18:24:49.303Z,21.42
2024-01-18T18:27:16.142Z,11.63
2024-01-18T18:29:43.027Z,11.20
2024-01-18T18:32:09.780Z,9.13
2024-01-18T18:34:36.785Z,7.90
2024-01-18T18:37:07.141Z,7.43
2024-01-18T18:39:33.880Z,6.30
2024-01-18T18:42:00.669Z,7.18
2024-01-18T18:44:27.515Z,6.47
2024-01-18T18:46:55.774Z,5.43
2024-01-18T18:49:23.566Z,7.30
2024-01-18T18:51:50.513Z,15.45
2024-01-18T18:54:17.157Z,15.40
2024-01-18T18:56:44.677Z,6.20
2024-01-18T18:59:11.735Z,14.60
2024-01-18T19:01:38.361Z,14.57
2024-01-18T19:04:08.427Z,17.50
2024-01-18T19:06:36.712Z,15.05
2024-01-18T19:09:04.036Z,16.08
2024-01-18T19:11:33.392Z,17.08
2024-01-18T19:14:01.325Z,16.92
2024-01-18T19:16:28.682Z,16.65
2024-01-18T19:18:55.889Z,15.88
2024-01-18T19:21:23.050Z,15.75
2024-01-18T19:23:49.710Z,14.18
2024-01-18T19:26:16.580Z,14.38
2024-01-18T19:28:43.384Z,17.05
2024-01-18T19:31:10.041Z,15.18
2024-01-18T19:33:37.037Z,17.02
2024-01-18T19:36:09.384Z,16.10
2024-01-18T19:38:36.265Z,13.07
2024-01-18T19:41:03.137Z,12.18
2024-01-18T19:43:29.976Z,28.52
2024-01-18T19:45:59.675Z,39.17
2024-01-18T19:48:27.388Z,40.03
2024-01-18T19:50:54.588Z,36.47
2024-01-18T19:53:21.368Z,28.05
2024-01-18T19:55:49.433Z,26.27
2024-01-18T19:58:18.038Z,26.58
2024-01-18T20:00:44.974Z,26.20
2024-01-18T20:03:11.843Z,25.15
2024-01-18T20:05:38.666Z,23.48
2024-01-18T20:08:06.158Z,21.33
2024-01-18T20:10:32.965Z,22.77
2024-01-18T20:12:59.933Z,18.02
2024-01-18T20:15:26.737Z,19.27
2024-01-18T20:17:53.600Z,19.00
2024-01-18T20:20:20.596Z,18.88
2024-01-18T20:22:48.078Z,13.75
2024-01-18T20:25:16.217Z,16.08
2024-01-18T20:27:43.683Z,12.32
2024-01-18T20:30:11.410Z,12.85
2024-01-18T20:32:38.507Z,10.93
2024-01-18T20:35:06.595Z,10.73
2024-01-18T20:37:33.526Z,11.60
2024-01-18T20:40:08.173Z,11.43
2024-01-18T20:42:36.718Z,10.50
2024-01-18T20:45:07.422Z,9.85
2024-01-18T20:47:34.653Z,9.88
2024-01-18T20:50:01.694Z,10.10
2024-01-18T20:52:28.430Z,9.50
2024-01-18T20:54:55.562Z,8.82
2024-01-18T20:57:22.219Z,9.10
2024-01-18T20:59:48.977Z,9.05
2024-01-18T21:02:16.040Z,9.98
2024-01-18T21:04:42.765Z,8.98
2024-01-18T21:07:09.442Z,8.80
2024-01-18T21:09:36.458Z,7.45
2024-01-18T21:12:07.503Z,7.25
2024-01-18T21:14:34.436Z,7.18
2024-01-18T21:17:01.689Z,6.10
2024-01-18T21:19:28.446Z,6.25
2024-01-18T21:21:55.131Z,6.18
2024-01-18T21:24:21.852Z,6.07
2024-01-18T21:26:48.542Z,5.25
2024-01-18T21:29:15.285Z,5.20
2024-01-18T21:31:42.353Z,4.88
2024-01-18T21:34:09.004Z,5.80
2024-01-18T21:36:38.442Z,5.70
2024-01-18T21:39:06.306Z,6.10
2024-01-18T21:41:33.129Z,6.57
2024-01-18T21:44:01.939Z,5.72
2024-01-18T21:46:28.949Z,6.10
2024-01-18T21:48:56.031Z,5.85
2024-01-18T21:51:23.122Z,5.13
2024-01-18T21:53:51.413Z,5.65
2024-01-18T21:56:18.732Z,6.18
2024-01-18T21:58:45.872Z,6.88
2024-01-18T22:01:13.659Z,6.15
2024-01-18T22:03:44.687Z,6.07
2024-01-18T22:06:15.294Z,6.35
2024-01-18T22:08:42.640Z,6.32
2024-01-18T22:11:10.255Z,6.10
2024-01-18T22:13:38.640Z,5.38
2024-01-18T22:16:06.116Z,6.05
2024-01-18T22:18:32.821Z,5.78
2024-01-18T22:20:59.891Z,5.47
2024-01-18T22:23:26.625Z,5.43
2024-01-18T22:25:53.278Z,6.20
2024-01-18T22:28:20.263Z,6.03
2024-01-18T22:30:47.061Z,5.70
2024-01-18T22:33:13.828Z,5.97
2024-01-18T22:35:40.788Z,6.00
2024-01-18T22:38:07.596Z,5.45
2024-01-18T22:40:34.310Z,5.45
2024-01-18T22:43:01.103Z,5.38
2024-01-18T22:45:27.976Z,5.45
2024-01-18T22:47:54.875Z,5.50
2024-01-18T22:50:22.560Z,5.72
2024-01-18T22:52:49.262Z,5.30
2024-01-18T22:55:15.901Z,5.15
2024-01-18T22:57:42.860Z,5.55
2024-01-18T23:00:10.582Z,5.15
2024-01-18T23:02:37.351Z,5.20
2024-01-18T23:05:09.282Z,4.90
2024-01-18T23:07:35.919Z,4.95
2024-01-18T23:10:06.418Z,5.07
2024-01-18T23:12:33.486Z,5.18
2024-01-18T23:15:00.185Z,4.45
2024-01-18T23:17:26.900Z,3.90
2024-01-18T23:19:54.051Z,3.85
2024-01-18T23:22:20.700Z,3.40
2024-01-18T23:24:47.424Z,3.60
2024-01-18T23:27:14.385Z,3.03
2024-01-18T23:29:42.345Z,3.28
2024-01-18T23:32:09.012Z,2.97
2024-01-18T23:34:36.005Z,3.05
2024-01-18T23:37:02.757Z,3.40
2024-01-18T23:39:29.419Z,2.63
2024-01-18T23:41:57.650Z,2.90
2024-01-18T23:44:24.340Z,2.70
2024-01-18T23:46:50.983Z,2.60
2024-01-18T23:49:18.059Z,2.75
2024-01-18T23:51:44.951Z,2.50
2024-01-18T23:54:11.822Z,3.00
2024-01-18T23:56:38.779Z,4.30
2024-01-18T23:59:05.890Z,5.30
